sensor_id;sensor_type;location;lat;lon;timestamp;pressure;altitude;pressure_sealevel;temperature;humidity
54172;BME280;40076;52.354;4.970;2024-03-07T00:00:28;102717.31;;;7.73;100.00
54172;BME280;40076;52.354;4.970;2024-03-07T00:02:54;102720.25;;;7.72;100.00
54172;BME280;40076;52.354;4.970;2024-03-07T00:05:21;102725.88;;;7.70;100.00
54172;BME280;40076;52.354;4.970;2024-03-07T00:07:49;102724.53;;;7.68;100.00
54172;BME280;40076;52.354;4.970;2024-03-07T00:10:15;102730.97;;;7.67;100.00
54172;BME280;40076;52.354;4.970;2024-03-07T00:12:40;102727.47;;;7.66;100.00
54172;BME280;40076;52.354;4.970;2024-03-07T00:15:11;102728.22;;;7.62;100.00
54172;BME280;40076;52.354;4.970;2024-03-07T00:17:37;102725.78;;;7.60;100.00
54172;BME280;40076;52.354;4.970;2024-03-07T00:20:03;102729.53;;;7.59;100.00
54172;BME280;40076;52.354;4.970;2024-03-07T00:22:30;102730.84;;;7.57;100.00
54172;BME280;40076;52.354;4.970;2024-03-07T00:24:56;102728.41;;;7.55;100.00
54172;BME280;40076;52.354;4.970;2024-03-07T00:27:22;102724.94;;;7.55;100.00
54172;BME280;40076;52.354;4.970;2024-03-07T00:29:48;102724.13;;;7.54;100.00
54172;BME280;40076;52.354;4.970;2024-03-07T00:32:21;102726.22;;;7.52;100.00
54172;BME280;40076;52.354;4.970;2024-03-07T00:34:48;102723.53;;;7.52;100.00
54172;BME280;40076;52.354;4.970;2024-03-07T00:37:14;102716.78;;;7.50;100.00
54172;BME280;40076;52.354;4.970;2024-03-07T00:39:40;102718.91;;;7.48;100.00
54172;BME280;40076;52.354;4.970;2024-03-07T00:42:05;102719.19;;;7.46;100.00
54172;BME280;40076;52.354;4.970;2024-03-07T00:44:31;102719.66;;;7.43;100.00
54172;BME280;40076;52.354;4.970;2024-03-07T00:46:56;102719.09;;;7.41;100.00
54172;BME280;40076;52.354;4.970;2024-03-07T00:49:22;102718.03;;;7.42;100.00
54172;BME280;40076;52.354;4.970;2024-03-07T00:51:51;102720.16;;;7.40;100.00
54172;BME280;40076;52.354;4.970;2024-03-07T00:54:16;102716.69;;;7.40;100.00
54172;BME280;40076;52.354;4.970;2024-03-07T00:56:41;102714.50;;;7.36;100.00
54172;BME280;40076;52.354;4.970;2024-03-07T00:59:07;102712.84;;;7.35;100.00
54172;BME280;40076;52.354;4.970;2024-03-07T01:01:32;102710.41;;;7.34;100.00
54172;BME280;40076;52.354;4.970;2024-03-07T01:04:00;102707.19;;;7.32;100.00
54172;BME280;40076;52.354;4.970;2024-03-07T01:06:26;102712.81;;;7.30;100.00
54172;BME280;40076;52.354;4.970;2024-03-07T01:08:52;102721.13;;;7.29;100.00
54172;BME280;40076;52.354;4.970;2024-03-07T01:11:17;102707.09;;;7.27;100.00
54172;BME280;40076;52.354;4.970;2024-03-07T01:13:43;102710.03;;;7.25;100.00
54172;BME280;40076;52.354;4.970;2024-03-07T01:16:09;102706.00;;;7.23;100.00
54172;BME280;40076;52.354;4.970;2024-03-07T01:18:34;102706.00;;;7.23;100.00
54172;BME280;40076;52.354;4.970;2024-03-07T01:21:01;102701.09;;;7.20;100.00
54172;BME280;40076;52.354;4.970;2024-03-07T01:23:26;102702.16;;;7.19;100.00
54172;BME280;40076;52.354;4.970;2024-03-07T01:25:55;102701.63;;;7.17;100.00
54172;BME280;40076;52.354;4.970;2024-03-07T01:28:21;102698.59;;;7.13;100.00
54172;BME280;40076;52.354;4.970;2024-03-07T01:30:47;102704.22;;;7.12;100.00
54172;BME280;40076;52.354;4.970;2024-03-07T01:33:13;102700.72;;;7.11;100.00
54172;BME280;40076;52.354;4.970;2024-03-07T01:35:38;102693.72;;;7.10;100.00
54172;BME280;40076;52.354;4.970;2024-03-07T01:38:03;102696.41;;;7.10;100.00
54172;BME280;40076;52.354;4.970;2024-03-07T01:40:31;102700.19;;;7.09;100.00
54172;BME280;40076;52.354;4.970;2024-03-07T01:43:22;102702.59;;;7.11;100.00
54172;BME280;40076;52.354;4.970;2024-03-07T01:45:48;102704.75;;;7.09;100.00
54172;BME280;40076;52.354;4.970;2024-03-07T01:48:25;102699.63;;;7.07;100.00
54172;BME280;40076;52.354;4.970;2024-03-07T01:50:51;102699.63;;;7.07;100.00
54172;BME280;40076;52.354;4.970;2024-03-07T01:53:16;102697.16;;;7.06;100.00
54172;BME280;40076;52.354;4.970;2024-03-07T01:55:42;102697.97;;;7.06;100.00
54172;BME280;40076;52.354;4.970;2024-03-07T01:58:11;102700.09;;;7.04;100.00
54172;BME280;40076;52.354;4.970;2024-03-07T02:00:38;102699.53;;;7.02;100.00
54172;BME280;40076;52.354;4.970;2024-03-07T02:03:04;102697.94;;;7.01;100.00
54172;BME280;40076;52.354;4.970;2024-03-07T02:05:33;102692.78;;;7.00;100.00
54172;BME280;40076;52.354;4.970;2024-03-07T02:07:59;102699.72;;;6.95;100.00
54172;BME280;40076;52.354;4.970;2024-03-07T02:10:24;102695.41;;;6.94;100.00
54172;BME280;40076;52.354;4.970;2024-03-07T02:12:52;102692.16;;;6.92;100.00
54172;BME280;40076;52.354;4.970;2024-03-07T02:15:17;102690.53;;;6.91;100.00
54172;BME280;40076;52.354;4.970;2024-03-07T02:17:42;102688.91;;;6.90;100.00
54172;BME280;40076;52.354;4.970;2024-03-07T02:20:08;102687.53;;;6.88;100.00
54172;BME280;40076;52.354;4.970;2024-03-07T02:22:37;102681.31;;;6.87;100.00
54172;BME280;40076;52.354;4.970;2024-03-07T02:25:02;102682.91;;;6.83;100.00
54172;BME280;40076;52.354;4.970;2024-03-07T02:27:28;102683.97;;;6.82;100.00
54172;BME280;40076;52.354;4.970;2024-03-07T02:29:53;102680.69;;;6.80;100.00
54172;BME280;40076;52.354;4.970;2024-03-07T02:32:19;102678.78;;;6.76;100.00
54172;BME280;40076;52.354;4.970;2024-03-07T02:34:44;102675.03;;;6.77;100.00
54172;BME280;40076;52.354;4.970;2024-03-07T02:37:09;102678.78;;;6.76;100.00
54172;BME280;40076;52.354;4.970;2024-03-07T02:39:36;102685.44;;;6.73;100.00
54172;BME280;40076;52.354;4.970;2024-03-07T02:42:02;102681.69;;;6.74;100.00
54172;BME280;40076;52.354;4.970;2024-03-07T02:44:27;102680.31;;;6.72;100.00
54172;BME280;40076;52.354;4.970;2024-03-07T02:46:53;102678.44;;;6.72;100.00
54172;BME280;40076;52.354;4.970;2024-03-07T02:49:19;102679.25;;;6.73;100.00
54172;BME280;40076;52.354;4.970;2024-03-07T02:51:46;102675.44;;;6.69;100.00
54172;BME280;40076;52.354;4.970;2024-03-07T02:54:12;102674.16;;;6.71;100.00
54172;BME280;40076;52.354;4.970;2024-03-07T02:56:37;102680.00;;;6.68;100.00
54172;BME280;40076;52.354;4.970;2024-03-07T02:59:03;102667.16;;;6.70;100.00
54172;BME280;40076;52.354;4.970;2024-03-07T03:01:31;102669.03;;;6.70;100.00
54172;BME280;40076;52.354;4.970;2024-03-07T03:03:59;102670.88;;;6.69;100.00
54172;BME280;40076;52.354;4.970;2024-03-07T03:06:25;102659.34;;;6.69;100.00
54172;BME280;40076;52.354;4.970;2024-03-07T03:08:50;102653.16;;;6.68;100.00
54172;BME280;40076;52.354;4.970;2024-03-07T03:11:15;102652.09;;;6.69;100.00
54172;BME280;40076;52.354;4.970;2024-03-07T03:13:41;102652.09;;;6.69;100.00
54172;BME280;40076;52.354;4.970;2024-03-07T03:16:06;102647.78;;;6.68;100.00
54172;BME280;40076;52.354;4.970;2024-03-07T03:18:33;102657.47;;;6.69;100.00
54172;BME280;40076;52.354;4.970;2024-03-07T03:21:02;102652.09;;;6.69;100.00
54172;BME280;40076;52.354;4.970;2024-03-07T03:23:30;102642.41;;;6.68;100.00
54172;BME280;40076;52.354;4.970;2024-03-07T03:25:56;102647.78;;;6.68;100.00
54172;BME280;40076;52.354;4.970;2024-03-07T03:28:22;102648.00;;;6.67;100.00
54172;BME280;40076;52.354;4.970;2024-03-07T03:30:49;102645.09;;;6.68;100.00
54172;BME280;40076;52.354;4.970;2024-03-07T03:33:14;102652.09;;;6.69;100.00
54172;BME280;40076;52.354;4.970;2024-03-07T03:35:40;102639.38;;;6.65;100.00
54172;BME280;40076;52.354;4.970;2024-03-07T03:38:06;102646.38;;;6.66;100.00
54172;BME280;40076;52.354;4.970;2024-03-07T03:40:32;102647.19;;;6.66;100.00
54172;BME280;40076;52.354;4.970;2024-03-07T03:42:59;102641.00;;;6.66;100.00
54172;BME280;40076;52.354;4.970;2024-03-07T03:45:25;102640.19;;;6.65;100.00
54172;BME280;40076;52.354;4.970;2024-03-07T03:47:51;102645.56;;;6.65;100.00
54172;BME280;40076;52.354;4.970;2024-03-07T03:50:17;102637.50;;;6.65;100.00
54172;BME280;40076;52.354;4.970;2024-03-07T03:52:48;102629.44;;;6.65;100.00
54172;BME280;40076;52.354;4.970;2024-03-07T03:55:16;102632.94;;;6.66;100.00
54172;BME280;40076;52.354;4.970;2024-03-07T03:57:44;102634.00;;;6.65;100.00
54172;BME280;40076;52.354;4.970;2024-03-07T04:00:10;102637.78;;;6.64;100.00
54172;BME280;40076;52.354;4.970;2024-03-07T04:02:43;102627.28;;;6.62;100.00
54172;BME280;40076;52.354;4.970;2024-03-07T04:05:10;102631.03;;;6.61;100.00
54172;BME280;40076;52.354;4.970;2024-03-07T04:07:40;102625.88;;;6.59;100.00
54172;BME280;40076;52.354;4.970;2024-03-07T04:10:06;102628.81;;;6.58;100.00
54172;BME280;40076;52.354;4.970;2024-03-07T04:12:35;102622.63;;;6.57;100.00
54172;BME280;40076;52.354;4.970;2024-03-07T04:15:03;102623.69;;;6.56;100.00
54172;BME280;40076;52.354;4.970;2024-03-07T04:17:29;102619.41;;;6.55;100.00
54172;BME280;40076;52.354;4.970;2024-03-07T04:19:55;102614.53;;;6.52;100.00
54172;BME280;40076;52.354;4.970;2024-03-07T04:22:20;102621.19;;;6.50;100.00
54172;BME280;40076;52.354;4.970;2024-03-07T04:24:46;102623.88;;;6.50;100.00
54172;BME280;40076;52.354;4.970;2024-03-07T04:27:13;102623.88;;;6.50;100.00
54172;BME280;40076;52.354;4.970;2024-03-07T04:29:38;102628.69;;;6.48;100.00
54172;BME280;40076;52.354;4.970;2024-03-07T04:32:04;102626.84;;;6.48;100.00
54172;BME280;40076;52.354;4.970;2024-03-07T04:34:30;102623.06;;;6.49;100.00
54172;BME280;40076;52.354;4.970;2024-03-07T04:36:56;102630.06;;;6.50;100.00
54172;BME280;40076;52.354;4.970;2024-03-07T04:39:22;102630.31;;;6.49;100.00
54172;BME280;40076;52.354;4.970;2024-03-07T04:41:53;102626.00;;;6.48;100.00
54172;BME280;40076;52.354;4.970;2024-03-07T04:44:19;102639.69;;;6.46;100.00
54172;BME280;40076;52.354;4.970;2024-03-07T04:46:50;102629.75;;;6.47;100.00
54172;BME280;40076;52.354;4.970;2024-03-07T04:49:23;102632.44;;;6.47;100.00
54172;BME280;40076;52.354;4.970;2024-03-07T04:51:53;102629.75;;;6.47;100.00
54172;BME280;40076;52.354;4.970;2024-03-07T04:54:19;102635.94;;;6.47;100.00
54172;BME280;40076;52.354;4.970;2024-03-07T04:56:45;102631.63;;;6.46;100.00
54172;BME280;40076;52.354;4.970;2024-03-07T04:59:11;102630.81;;;6.46;100.00
54172;BME280;40076;52.354;4.970;2024-03-07T05:01:37;102625.44;;;6.46;100.00
54172;BME280;40076;52.354;4.970;2024-03-07T05:04:03;102629.19;;;6.45;100.00
54172;BME280;40076;52.354;4.970;2024-03-07T05:06:29;102625.69;;;6.44;100.00
54172;BME280;40076;52.354;4.970;2024-03-07T05:08:54;102623.81;;;6.45;100.00
54172;BME280;40076;52.354;4.970;2024-03-07T05:11:20;102624.88;;;6.44;100.00
54172;BME280;40076;52.354;4.970;2024-03-07T05:13:46;102624.06;;;6.43;100.00
54172;BME280;40076;52.354;4.970;2024-03-07T05:16:12;102618.94;;;6.42;100.00
54172;BME280;40076;52.354;4.970;2024-03-07T05:18:37;102622.44;;;6.42;100.00
54172;BME280;40076;52.354;4.970;2024-03-07T05:21:02;102626.16;;;6.41;100.00
54172;BME280;40076;52.354;4.970;2024-03-07T05:23:48;102628.31;;;6.39;100.00
54172;BME280;40076;52.354;4.970;2024-03-07T05:26:16;102625.03;;;6.37;100.00
54172;BME280;40076;52.354;4.970;2024-03-07T05:28:41;102627.72;;;6.37;100.00
54172;BME280;40076;52.354;4.970;2024-03-07T05:31:06;102629.03;;;6.35;100.00
54172;BME280;40076;52.354;4.970;2024-03-07T05:33:32;102627.97;;;6.36;100.00
54172;BME280;40076;52.354;4.970;2024-03-07T05:35:57;102619.63;;;6.32;100.00
54172;BME280;40076;52.354;4.970;2024-03-07T05:38:39;102622.53;;;6.31;100.00
54172;BME280;40076;52.354;4.970;2024-03-07T05:41:05;102622.53;;;6.31;100.00
54172;BME280;40076;52.354;4.970;2024-03-07T05:43:30;102631.88;;;6.28;100.00
54172;BME280;40076;52.354;4.970;2024-03-07T05:45:57;102622.19;;;6.27;100.00
54172;BME280;40076;52.354;4.970;2024-03-07T05:48:26;102627.56;;;6.27;100.00
54172;BME280;40076;52.354;4.970;2024-03-07T05:50:51;102618.69;;;6.27;100.00
54172;BME280;40076;52.354;4.970;2024-03-07T05:53:16;102625.13;;;6.26;100.00
54172;BME280;40076;52.354;4.970;2024-03-07T05:55:43;102619.44;;;6.22;100.00
54172;BME280;40076;52.354;4.970;2024-03-07T05:58:08;102621.31;;;6.22;100.00
54172;BME280;40076;52.354;4.970;2024-03-07T06:00:35;102626.94;;;6.20;100.00
54172;BME280;40076;52.354;4.970;2024-03-07T06:03:04;102624.50;;;6.18;100.00
54172;BME280;40076;52.354;4.970;2024-03-07T06:05:30;102621.25;;;6.16;100.00
54172;BME280;40076;52.354;4.970;2024-03-07T06:07:56;102622.31;;;6.15;100.00
54172;BME280;40076;52.354;4.970;2024-03-07T06:10:22;102624.41;;;6.13;100.00
54172;BME280;40076;52.354;4.970;2024-03-07T06:12:50;102623.03;;;6.11;100.00
54172;BME280;40076;52.354;4.970;2024-03-07T06:15:15;102619.53;;;6.10;100.00
54172;BME280;40076;52.354;4.970;2024-03-07T06:17:41;102622.47;;;6.09;100.00
54172;BME280;40076;52.354;4.970;2024-03-07T06:20:08;102625.41;;;6.07;100.00
54172;BME280;40076;52.354;4.970;2024-03-07T06:22:48;102620.50;;;6.04;100.00
54172;BME280;40076;52.354;4.970;2024-03-07T06:25:13;102625.06;;;6.04;100.00
54172;BME280;40076;52.354;4.970;2024-03-07T06:27:44;102623.72;;;6.01;100.00
54172;BME280;40076;52.354;4.970;2024-03-07T06:30:14;102626.38;;;6.01;100.00
54172;BME280;40076;52.354;4.970;2024-03-07T06:32:41;102628.25;;;6.01;100.00
54172;BME280;40076;52.354;4.970;2024-03-07T06:35:07;102626.63;;;6.00;100.00
54172;BME280;40076;52.354;4.970;2024-03-07T06:37:32;102625.81;;;5.99;100.00
54172;BME280;40076;52.354;4.970;2024-03-07T06:40:00;102624.41;;;5.97;100.00
54172;BME280;40076;52.354;4.970;2024-03-07T06:42:25;102630.84;;;5.96;100.00
54172;BME280;40076;52.354;4.970;2024-03-07T06:44:51;102630.03;;;5.95;100.00
54172;BME280;40076;52.354;4.970;2024-03-07T06:47:16;102626.78;;;5.93;100.00
54172;BME280;40076;52.354;4.970;2024-03-07T06:49:42;102633.44;;;5.91;100.00
54172;BME280;40076;52.354;4.970;2024-03-07T06:52:07;102632.06;;;5.88;100.00
54172;BME280;40076;52.354;4.970;2024-03-07T06:54:33;102625.06;;;5.87;100.00
54172;BME280;40076;52.354;4.970;2024-03-07T06:57:01;102623.66;;;5.85;100.00
54172;BME280;40076;52.354;4.970;2024-03-07T06:59:26;102625.53;;;5.84;100.00
54172;BME280;40076;52.354;4.970;2024-03-07T07:01:51;102620.41;;;5.82;100.00
54172;BME280;40076;52.354;4.970;2024-03-07T07:04:19;102623.31;;;5.81;100.00
54172;BME280;40076;52.354;4.970;2024-03-07T07:06:44;102626.00;;;5.81;100.00
54172;BME280;40076;52.354;4.970;2024-03-07T07:09:10;102622.78;;;5.79;100.00
54172;BME280;40076;52.354;4.970;2024-03-07T07:11:36;102621.16;;;5.78;100.00
54172;BME280;40076;52.354;4.970;2024-03-07T07:14:02;102629.19;;;5.78;100.00
54172;BME280;40076;52.354;4.970;2024-03-07T07:16:30;102623.72;;;5.73;100.00
54172;BME280;40076;52.354;4.970;2024-03-07T07:18:56;102621.31;;;5.71;100.00
54172;BME280;40076;52.354;4.970;2024-03-07T07:21:29;102621.69;;;5.63;100.00
54172;BME280;40076;52.354;4.970;2024-03-07T07:23:57;102624.03;;;5.60;100.00
54172;BME280;40076;52.354;4.970;2024-03-07T07:26:26;102624.63;;;5.62;100.00
54172;BME280;40076;52.354;4.970;2024-03-07T07:28:53;102625.19;;;5.64;100.00
54172;BME280;40076;52.354;4.970;2024-03-07T07:31:19;102620.88;;;5.63;100.00
54172;BME280;40076;52.354;4.970;2024-03-07T07:33:47;102621.44;;;5.65;100.00
54172;BME280;40076;52.354;4.970;2024-03-07T07:36:20;102620.88;;;5.63;100.00
54172;BME280;40076;52.354;4.970;2024-03-07T07:38:45;102620.31;;;5.61;100.00
54172;BME280;40076;52.354;4.970;2024-03-07T07:41:11;102624.63;;;5.62;100.00
54172;BME280;40076;52.354;4.970;2024-03-07T07:43:39;102628.34;;;5.61;100.00
54172;BME280;40076;52.354;4.970;2024-03-07T07:46:05;102624.03;;;5.60;100.00
54172;BME280;40076;52.354;4.970;2024-03-07T07:48:30;102621.84;;;5.57;100.00
54172;BME280;40076;52.354;4.970;2024-03-07T07:50:56;102618.91;;;5.58;100.00
54172;BME280;40076;52.354;4.970;2024-03-07T07:53:24;102618.91;;;5.58;100.00
54172;BME280;40076;52.354;4.970;2024-03-07T07:55:50;102620.78;;;5.58;100.00
54172;BME280;40076;52.354;4.970;2024-03-07T07:58:28;102625.66;;;5.61;100.00
54172;BME280;40076;52.354;4.970;2024-03-07T08:00:59;102620.06;;;5.62;100.00
54172;BME280;40076;52.354;4.970;2024-03-07T08:03:35;102634.75;;;5.60;100.00
54172;BME280;40076;52.354;4.970;2024-03-07T08:06:10;102623.22;;;5.59;100.00
54172;BME280;40076;52.354;4.970;2024-03-07T08:08:35;102618.44;;;5.61;100.00
54172;BME280;40076;52.354;4.970;2024-03-07T08:11:01;102619.56;;;5.65;100.00
54172;BME280;40076;52.354;4.970;2024-03-07T08:13:27;102620.66;;;5.64;100.00
54172;BME280;40076;52.354;4.970;2024-03-07T08:15:52;102624.69;;;5.67;100.00
54172;BME280;40076;52.354;4.970;2024-03-07T08:18:20;102621.19;;;5.66;100.00
54172;BME280;40076;52.354;4.970;2024-03-07T08:20:53;102625.75;;;5.66;100.00
54172;BME280;40076;52.354;4.970;2024-03-07T08:23:19;102617.97;;;5.64;100.00
54172;BME280;40076;52.354;4.970;2024-03-07T08:25:44;102624.47;;;5.68;100.00
54172;BME280;40076;52.354;4.970;2024-03-07T08:28:09;102621.53;;;5.70;100.00
54172;BME280;40076;52.354;4.970;2024-03-07T08:30:35;102622.91;;;5.72;100.00
54172;BME280;40076;52.354;4.970;2024-03-07T08:33:01;102617.53;;;5.72;100.00
54172;BME280;40076;52.354;4.970;2024-03-07T08:35:33;102617.53;;;5.72;100.00
54172;BME280;40076;52.354;4.970;2024-03-07T08:37:59;102611.94;;;5.74;100.00
54172;BME280;40076;52.354;4.970;2024-03-07T08:40:26;102610.88;;;5.75;100.00
54172;BME280;40076;52.354;4.970;2024-03-07T08:42:56;102616.03;;;5.76;100.00
54172;BME280;40076;52.354;4.970;2024-03-07T08:45:25;102622.44;;;5.75;100.00
54172;BME280;40076;52.354;4.970;2024-03-07T08:47:53;102610.66;;;5.76;100.00
54172;BME280;40076;52.354;4.970;2024-03-07T08:50:23;102614.16;;;5.77;100.00
54172;BME280;40076;52.354;4.970;2024-03-07T08:52:58;102614.72;;;5.79;100.00
54172;BME280;40076;52.354;4.970;2024-03-07T08:55:26;102614.72;;;5.79;100.00
54172;BME280;40076;52.354;4.970;2024-03-07T08:57:54;102604.81;;;5.79;100.00
54172;BME280;40076;52.354;4.970;2024-03-07T09:00:19;102606.19;;;5.82;100.00
54172;BME280;40076;52.354;4.970;2024-03-07T09:02:52;102614.22;;;5.82;100.00
54172;BME280;40076;52.354;4.970;2024-03-07T09:05:23;102610.00;;;5.86;100.00
54172;BME280;40076;52.354;4.970;2024-03-07T09:07:50;102614.31;;;5.87;100.00
54172;BME280;40076;52.354;4.970;2024-03-07T09:10:16;102607.91;;;5.88;100.00
54172;BME280;40076;52.354;4.970;2024-03-07T09:12:42;102610.13;;;5.91;100.00
54172;BME280;40076;52.354;4.970;2024-03-07T09:15:10;102604.75;;;5.91;100.00
54172;BME280;40076;52.354;4.970;2024-03-07T09:17:39;102604.50;;;5.93;100.00
54172;BME280;40076;52.354;4.970;2024-03-07T09:20:12;102609.38;;;5.96;100.00
54172;BME280;40076;52.354;4.970;2024-03-07T09:22:56;102604.34;;;5.99;100.00
54172;BME280;40076;52.354;4.970;2024-03-07T09:25:21;102594.66;;;5.98;100.00
54172;BME280;40076;52.354;4.970;2024-03-07T09:27:48;102605.16;;;6.00;100.00
54172;BME280;40076;52.354;4.970;2024-03-07T09:30:16;102592.31;;;6.02;100.00
54172;BME280;40076;52.354;4.970;2024-03-07T09:32:49;102594.72;;;6.03;100.00
54172;BME280;40076;52.354;4.970;2024-03-07T09:35:14;102589.94;;;6.05;100.00
54172;BME280;40076;52.354;4.970;2024-03-07T09:37:44;102589.47;;;6.08;100.00
54172;BME280;40076;52.354;4.970;2024-03-07T09:40:11;102593.28;;;6.12;100.00
54172;BME280;40076;52.354;4.970;2024-03-07T09:42:48;102582.53;;;6.12;100.00
54172;BME280;40076;52.354;4.970;2024-03-07T09:45:18;102581.25;;;6.15;100.00
54172;BME280;40076;52.354;4.970;2024-03-07T09:47:50;102579.44;;;6.20;100.00
54172;BME280;40076;52.354;4.970;2024-03-07T09:50:19;102578.13;;;6.23;100.00
54172;BME280;40076;52.354;4.970;2024-03-07T09:52:48;102580.06;;;6.28;100.00
54172;BME280;40076;52.354;4.970;2024-03-07T09:55:17;102577.13;;;6.29;100.00
54172;BME280;40076;52.354;4.970;2024-03-07T09:57:47;102574.22;;;6.31;100.00
54172;BME280;40076;52.354;4.970;2024-03-07T10:00:16;102571.34;;;6.37;100.00
54172;BME280;40076;52.354;4.970;2024-03-07T10:02:49;102574.34;;;6.41;100.00
54172;BME280;40076;52.354;4.970;2024-03-07T10:05:18;102569.06;;;6.46;100.00
54172;BME280;40076;52.354;4.970;2024-03-07T10:07:45;102565.59;;;6.50;100.00
54172;BME280;40076;52.354;4.970;2024-03-07T10:10:13;102569.44;;;6.54;100.00
54172;BME280;40076;52.354;4.970;2024-03-07T10:12:46;102574.88;;;6.59;100.00
54172;BME280;40076;52.354;4.970;2024-03-07T10:15:11;102576.72;;;6.59;100.00
54172;BME280;40076;52.354;4.970;2024-03-07T10:17:41;102563.34;;;6.64;100.00
54172;BME280;40076;52.354;4.970;2024-03-07T10:20:08;102568.81;;;6.69;100.00
54172;BME280;40076;52.354;4.970;2024-03-07T10:22:41;102562.91;;;6.72;100.00
54172;BME280;40076;52.354;4.970;2024-03-07T10:25:06;102554.84;;;6.72;100.00
54172;BME280;40076;52.354;4.970;2024-03-07T10:27:36;102562.69;;;6.74;100.00
54172;BME280;40076;52.354;4.970;2024-03-07T10:30:09;102550.38;;;6.78;100.00
54172;BME280;40076;52.354;4.970;2024-03-07T10:32:51;102545.31;;;6.81;100.00
54172;BME280;40076;52.354;4.970;2024-03-07T10:35:22;102549.94;;;6.86;100.00
54172;BME280;40076;52.354;4.970;2024-03-07T10:37:54;102550.75;;;6.86;100.00
54172;BME280;40076;52.354;4.970;2024-03-07T10:40:31;102535.41;;;6.87;100.00
54172;BME280;40076;52.354;4.970;2024-03-07T10:42:59;102542.72;;;6.91;100.00
54172;BME280;40076;52.354;4.970;2024-03-07T10:45:29;102531.16;;;6.91;100.00
54172;BME280;40076;52.354;4.970;2024-03-07T10:47:57;102532.28;;;6.95;100.00
54172;BME280;40076;52.354;4.970;2024-03-07T10:53:31;102537.47;;;7.02;100.00
54172;BME280;40076;52.354;4.970;2024-03-07T11:01:31;102522.78;;;7.09;100.00
54172;BME280;40076;52.354;4.970;2024-03-07T11:04:01;102527.06;;;7.10;100.00
54172;BME280;40076;52.354;4.970;2024-03-07T11:06:31;102532.75;;;7.14;100.00
54172;BME280;40076;52.354;4.970;2024-03-07T11:09:01;102522.28;;;7.17;100.00
54172;BME280;40076;52.354;4.970;2024-03-07T11:11:38;102519.91;;;7.21;100.00
54172;BME280;40076;52.354;4.970;2024-03-07T11:14:06;102522.09;;;7.24;100.00
54172;BME280;40076;52.354;4.970;2024-03-07T11:16:33;102519.13;;;7.25;100.00
54172;BME280;40076;52.354;4.970;2024-03-07T11:19:25;102510.56;;;7.28;100.00
54172;BME280;40076;52.354;4.970;2024-03-07T11:22:04;102509.25;;;7.31;100.00
54172;BME280;40076;52.354;4.970;2024-03-07T11:24:41;102511.16;;;7.35;100.00
54172;BME280;40076;52.354;4.970;2024-03-07T11:27:13;102501.22;;;7.36;100.00
54172;BME280;40076;52.354;4.970;2024-03-07T11:29:50;102494.25;;;7.40;100.00
54172;BME280;40076;52.354;4.970;2024-03-07T11:32:28;102497.50;;;7.42;100.00
54172;BME280;40076;52.354;4.970;2024-03-07T11:34:54;102499.16;;;7.48;100.00
54172;BME280;40076;52.354;4.970;2024-03-07T11:37:39;102504.03;;;7.51;100.00
54172;BME280;40076;52.354;4.970;2024-03-07T11:40:10;102501.09;;;7.53;100.00
54172;BME280;40076;52.354;4.970;2024-03-07T11:42:47;102502.19;;;7.57;100.00
54172;BME280;40076;52.354;4.970;2024-03-07T11:48:13;102489.84;;;7.61;100.00
54172;BME280;40076;52.354;4.970;2024-03-07T11:50:51;102484.75;;;7.64;100.00
54172;BME280;40076;52.354;4.970;2024-03-07T11:53:16;102475.94;;;7.69;100.00
54172;BME280;40076;52.354;4.970;2024-03-07T11:55:43;102470.00;;;7.72;100.00
54172;BME280;40076;52.354;4.970;2024-03-07T11:58:16;102463.88;;;7.77;100.00
54172;BME280;40076;52.354;4.970;2024-03-07T12:00:43;102455.53;;;7.78;100.00
54172;BME280;40076;52.354;4.970;2024-03-07T12:03:16;102464.94;;;7.81;100.00
54172;BME280;40076;52.354;4.970;2024-03-07T12:05:50;102457.19;;;7.84;100.00
54172;BME280;40076;52.354;4.970;2024-03-07T12:08:16;102444.81;;;7.88;100.00
54172;BME280;40076;52.354;4.970;2024-03-07T12:10:50;102443.75;;;7.94;100.00
54172;BME280;40076;52.354;4.970;2024-03-07T17:55:59;102175.88;;;7.51;100.00
54172;BME280;40076;52.354;4.970;2024-03-07T18:02:13;102176.41;;;7.38;100.00
54172;BME280;40076;52.354;4.970;2024-03-07T18:04:48;102173.16;;;7.41;100.00
54172;BME280;40076;52.354;4.970;2024-03-07T18:10:47;102174.22;;;7.30;100.00
54172;BME280;40076;52.354;4.970;2024-03-07T18:17:19;102177.41;;;7.22;100.00
54172;BME280;40076;52.354;4.970;2024-03-07T18:19:47;102169.88;;;7.19;100.00
54172;BME280;40076;52.354;4.970;2024-03-07T18:22:13;102176.06;;;7.19;100.00
54172;BME280;40076;52.354;4.970;2024-03-07T18:24:40;102172.28;;;7.20;100.00
54172;BME280;40076;52.354;4.970;2024-03-07T18:27:21;102174.72;;;7.17;100.00
54172;BME280;40076;52.354;4.970;2024-03-07T18:30:13;102177.66;;;7.15;100.00
54172;BME280;40076;52.354;4.970;2024-03-07T18:32:45;102185.97;;;7.14;100.00
54172;BME280;40076;52.354;4.970;2024-03-07T18:35:16;102177.38;;;7.12;100.00
54172;BME280;40076;52.354;4.970;2024-03-07T18:37:43;102174.97;;;7.15;100.00
54172;BME280;40076;52.354;4.970;2024-03-07T18:40:14;102174.66;;;7.07;100.00
54172;BME280;40076;52.354;4.970;2024-03-07T18:42:47;102173.03;;;7.06;100.00
54172;BME280;40076;52.354;4.970;2024-03-07T18:45:17;102169.03;;;7.08;100.00
54172;BME280;40076;52.354;4.970;2024-03-07T18:47:44;102179.22;;;7.06;100.00
54172;BME280;40076;52.354;4.970;2024-03-07T18:50:25;102171.16;;;7.01;100.00
54172;BME280;40076;52.354;4.970;2024-03-07T18:52:54;102172.47;;;6.98;100.00
54172;BME280;40076;52.354;4.970;2024-03-07T18:55:29;102173.81;;;6.96;100.00
54172;BME280;40076;52.354;4.970;2024-03-07T18:58:08;102171.91;;;6.96;100.00
54172;BME280;40076;52.354;4.970;2024-03-07T19:00:35;102160.06;;;6.87;100.00